Time;durP1;ratioP1;P1;durP2;ratioP2;P2;SDS_P1;SDS_P2;PMS_P1;PMS_P2;Temp;Humidity;BMP_temperature;BMP_pressure;BME280_temperature;BME280_humidity;BME280_pressure;Samples;Min_cycle;Max_cycle;Signal;HPM_P1;HPM_P2
2022/06/29 00:00:04;;;;;;;1999.90;999.90;;;14.80;99.90;;;;;;5023313;28;20447;-72
2022/06/29 00:02:31;;;;;;;1999.90;999.90;;;15.00;99.90;;;;;;5013664;28;20538;-72
2022/06/29 00:04:57;;;;;;;1999.90;999.90;;;15.00;99.90;;;;;;5016265;28;20459;-71
2022/06/29 00:07:24;;;;;;;1999.90;999.90;;;15.00;99.90;;;;;;5019726;28;20465;-72
2022/06/29 00:09:51;;;;;;;1999.90;999.90;;;14.90;99.90;;;;;;5011758;28;20518;-72
2022/06/29 00:12:17;;;;;;;1999.90;999.90;;;15.00;99.90;;;;;;5017925;28;21054;-72
2022/06/29 00:14:45;;;;;;;1999.90;999.90;;;14.90;99.90;;;;;;5011420;28;20537;-69
2022/06/29 00:17:13;;;;;;;1999.90;999.90;;;14.80;99.90;;;;;;5007727;28;21000;-72
2022/06/29 00:19:40;;;;;;;1999.90;999.90;;;14.90;99.90;;;;;;5009358;28;21026;-71
2022/06/29 00:22:08;;;;;;;1999.90;999.90;;;15.10;99.90;;;;;;5022963;28;21034;-71
2022/06/29 00:24:36;;;;;;;1999.90;999.90;;;15.10;99.90;;;;;;5023414;28;20505;-72
2022/06/29 00:27:03;;;;;;;1999.90;999.90;;;14.70;99.90;;;;;;5013623;28;20459;-71
2022/06/29 00:29:30;;;;;;;1999.90;999.90;;;14.50;99.90;;;;;;5022376;28;20467;-72
2022/06/29 00:31:58;;;;;;;1999.90;999.90;;;14.50;99.90;;;;;;5015705;28;20462;-71
2022/06/29 00:34:25;;;;;;;1999.90;999.90;;;14.60;99.90;;;;;;5023742;28;20529;-71
2022/06/29 00:36:52;;;;;;;1999.90;999.90;;;14.60;99.90;;;;;;5019321;28;20476;-72
2022/06/29 00:39:18;;;;;;;1999.90;999.90;;;14.70;99.90;;;;;;5013821;28;20603;-71
2022/06/29 00:41:46;;;;;;;1999.90;999.90;;;14.60;99.90;;;;;;5021580;28;20517;-71
2022/06/29 00:44:14;;;;;;;1999.90;999.90;;;14.60;99.90;;;;;;5017869;28;20463;-71
2022/06/29 00:46:47;;;;;;;1999.90;999.90;;;14.50;99.90;;;;;;5025081;28;20455;-72
2022/06/29 00:49:15;;;;;;;1999.90;999.90;;;14.40;99.90;;;;;;5017513;28;20468;-71
2022/06/29 00:51:45;;;;;;;1999.90;999.90;;;14.40;99.90;;;;;;5013108;28;20976;-72
2022/06/29 00:54:15;;;;;;;1999.90;999.90;;;14.50;99.90;;;;;;5027269;28;20955;-71
2022/06/29 00:56:43;;;;;;;1999.90;999.90;;;14.50;99.90;;;;;;5018084;28;20483;-71
2022/06/29 00:59:13;;;;;;;1999.90;999.90;;;14.70;99.90;;;;;;5025202;28;20521;-71
2022/06/29 01:01:42;;;;;;;1999.90;999.90;;;14.80;99.90;;;;;;5008689;28;20515;-71
2022/06/29 01:04:09;;;;;;;1999.90;999.90;;;14.90;99.90;;;;;;5012205;28;20494;-72
2022/06/29 01:06:37;;;;;;;1999.90;999.90;;;15.10;99.90;;;;;;5011992;28;20495;-71
2022/06/29 01:09:04;;;;;;;1999.90;999.90;;;14.90;99.90;;;;;;5014200;28;20440;-72
2022/06/29 01:11:32;;;;;;;1999.90;999.90;;;14.80;99.90;;;;;;5014190;28;20440;-72
2022/06/29 01:13:59;;;;;;;1999.90;999.90;;;14.60;99.90;;;;;;5012549;28;20480;-71
2022/06/29 01:16:26;;;;;;;1999.90;999.90;;;14.40;99.90;;;;;;5012981;28;20971;-71
2022/06/29 01:18:53;;;;;;;1999.90;999.90;;;14.40;99.90;;;;;;5014008;28;20456;-71
2022/06/29 01:21:21;;;;;;;1999.90;999.90;;;14.40;99.90;;;;;;5013926;28;20448;-71
2022/06/29 01:23:49;;;;;;;1999.90;999.90;;;14.40;99.90;;;;;;5022424;28;20517;-71
2022/06/29 01:26:15;;;;;;;1999.90;999.90;;;14.50;99.90;;;;;;5013362;28;20502;-71
2022/06/29 01:28:46;;;;;;;1999.90;999.90;;;14.50;99.90;;;;;;5013771;28;20872;-72
2022/06/29 01:31:14;;;;;;;1999.90;999.90;;;14.50;99.90;;;;;;5013542;28;20856;-71
2022/06/29 01:33:42;;;;;;;1999.90;999.90;;;14.40;99.90;;;;;;5044459;22;20498;-69
2022/06/29 01:36:08;;;;;;;1999.90;999.90;;;14.40;99.90;;;;;;5027149;28;20487;-70
2022/06/29 01:38:36;;;;;;;1999.90;999.90;;;14.30;99.90;;;;;;5031956;28;20509;-70
2022/06/29 01:41:04;;;;;;;1999.90;999.90;;;14.40;99.90;;;;;;5032718;28;21046;-68
2022/06/29 01:43:32;;;;;;;1999.90;999.90;;;14.40;99.90;;;;;;5032058;28;20479;-69
2022/06/29 01:45:58;;;;;;;1999.90;999.90;;;14.40;99.90;;;;;;5024215;28;20931;-69
2022/06/29 01:48:25;;;;;;;1999.90;999.90;;;14.00;99.90;;;;;;5022076;28;20467;-70
2022/06/29 01:50:52;;;;;;;1999.90;999.90;;;13.90;99.90;;;;;;5029946;28;20486;-70
2022/06/29 01:53:19;;;;;;;1999.90;999.90;;;14.00;99.90;;;;;;5029915;28;20855;-69
2022/06/29 01:55:46;;;;;;;1999.90;999.90;;;14.10;99.90;;;;;;5022760;28;20463;-69
2022/06/29 01:58:14;;;;;;;1999.90;999.90;;;14.10;99.90;;;;;;5022420;28;21017;-70
2022/06/29 02:00:41;;;;;;;1999.90;999.90;;;14.20;99.90;;;;;;5022965;28;20463;-69
2022/06/29 02:03:09;;;;;;;1999.90;999.90;;;14.30;99.90;;;;;;5030765;28;20482;-70
2022/06/29 02:05:35;;;;;;;1999.90;999.90;;;14.40;99.90;;;;;;5030855;28;20463;-70
2022/06/29 02:08:02;;;;;;;1999.90;999.90;;;14.40;99.90;;;;;;5031707;28;20558;-70
2022/06/29 02:10:29;;;;;;;1999.90;999.90;;;14.30;99.90;;;;;;5032697;28;20470;-69
2022/06/29 02:12:55;;;;;;;1999.90;999.90;;;14.30;99.90;;;;;;5031821;28;20482;-70
2022/06/29 02:15:24;;;;;;;1999.90;999.90;;;14.30;99.90;;;;;;5032005;28;20501;-69
2022/06/29 02:17:51;;;;;;;1999.90;999.90;;;14.20;99.90;;;;;;5031875;28;20482;-70
2022/06/29 02:20:17;;;;;;;1999.90;999.90;;;14.10;99.90;;;;;;5032497;28;20447;-69
2022/06/29 02:22:44;;;;;;;1999.90;999.90;;;14.00;99.90;;;;;;5032606;28;20540;-69
2022/06/29 02:25:11;;;;;;;1999.90;999.90;;;14.10;99.90;;;;;;5031125;28;20509;-70
2022/06/29 02:27:40;;;;;;;1999.90;999.90;;;13.90;99.90;;;;;;5033039;28;20940;-69
2022/06/29 02:30:07;;;;;;;1999.90;999.90;;;13.30;99.90;;;;;;5032769;28;20451;-69
2022/06/29 02:35:20;;;;;;;1999.90;999.90;;;13.30;99.90;;;;;;5022999;28;20540;-69
2022/06/29 02:37:46;;;;;;;1999.90;999.90;;;13.40;99.90;;;;;;5030224;28;20483;-69
2022/06/29 02:40:13;;;;;;;1999.90;999.90;;;13.60;99.90;;;;;;5030135;28;20561;-70
2022/06/29 02:42:40;;;;;;;1999.90;999.90;;;13.80;99.90;;;;;;5022775;28;20474;-69
2022/06/29 02:45:07;;;;;;;1999.90;999.90;;;13.90;99.90;;;;;;5031848;28;20605;-69
2022/06/29 02:47:35;;;;;;;1999.90;999.90;;;14.00;99.90;;;;;;5030691;28;20494;-70
2022/06/29 02:50:02;;;;;;;1999.90;999.90;;;14.00;99.90;;;;;;5030231;28;20967;-69
2022/06/29 02:52:29;;;;;;;1999.90;999.90;;;14.10;99.90;;;;;;5029346;28;20540;-66
2022/06/29 02:54:55;;;;;;;1999.90;999.90;;;14.20;99.90;;;;;;5030902;28;20467;-69
2022/06/29 02:57:24;;;;;;;1999.90;999.90;;;14.20;99.90;;;;;;5020714;28;21680;-69
2022/06/29 02:59:51;;;;;;;1999.90;999.90;;;14.20;99.90;;;;;;5025703;28;20455;-69
2022/06/29 03:02:18;;;;;;;1999.90;999.90;;;14.30;99.90;;;;;;5029927;28;20463;-69
2022/06/29 03:04:46;;;;;;;1999.90;999.90;;;14.30;99.90;;;;;;5029449;28;20459;-69
2022/06/29 03:07:12;;;;;;;1999.90;999.90;;;14.30;99.90;;;;;;5022062;28;20456;-69
2022/06/29 03:09:39;;;;;;;1999.90;999.90;;;14.20;99.90;;;;;;5030558;28;21197;-69
2022/06/29 03:12:06;;;;;;;1999.90;999.90;;;14.10;99.90;;;;;;5030125;28;20478;-68
2022/06/29 03:14:32;;;;;;;1999.90;999.90;;;14.00;99.90;;;;;;5027591;28;20989;-69
2022/06/29 03:16:59;;;;;;;1999.90;999.90;;;14.10;99.90;;;;;;5029142;28;20487;-70
2022/06/29 03:19:26;;;;;;;1999.90;999.90;;;14.20;99.90;;;;;;5029903;28;20603;-69
2022/06/29 03:21:54;;;;;;;1999.90;999.90;;;14.10;99.90;;;;;;5025726;28;20468;-68
2022/06/29 03:24:21;;;;;;;1999.90;999.90;;;14.20;99.90;;;;;;5014974;28;20487;-67
2022/06/29 03:26:47;;;;;;;1999.90;999.90;;;14.40;99.90;;;;;;5028149;28;20516;-71
2022/06/29 03:29:14;;;;;;;1999.90;999.90;;;14.70;99.90;;;;;;5030357;28;20462;-71
2022/06/29 03:31:40;;;;;;;1999.90;999.90;;;14.80;99.90;;;;;;5031755;28;20513;-71
2022/06/29 03:34:07;;;;;;;1999.90;999.90;;;14.90;99.90;;;;;;5027648;28;20545;-70
2022/06/29 03:36:34;;;;;;;1999.90;999.90;;;14.80;99.90;;;;;;5021918;28;20446;-69
2022/06/29 03:39:02;;;;;;;1999.90;999.90;;;14.80;99.90;;;;;;5030324;28;20482;-70
2022/06/29 03:41:29;;;;;;;1999.90;999.90;;;14.80;99.90;;;;;;5029383;28;20463;-69
2022/06/29 03:43:55;;;;;;;1999.90;999.90;;;14.90;99.90;;;;;;5031540;28;20463;-70
2022/06/29 03:46:22;;;;;;;1999.90;999.90;;;15.00;99.90;;;;;;5029094;28;20495;-70
2022/06/29 03:48:49;;;;;;;1999.90;999.90;;;15.20;99.90;;;;;;5022962;28;22010;-71
2022/06/29 03:51:15;;;;;;;1999.90;999.90;;;15.20;99.90;;;;;;5030136;28;20460;-70
2022/06/29 03:53:42;;;;;;;1999.90;999.90;;;15.00;99.90;;;;;;5029737;28;20479;-70
2022/06/29 03:56:10;;;;;;;1999.90;999.90;;;15.00;99.90;;;;;;5034572;28;20493;-70
2022/06/29 03:58:37;;;;;;;1999.90;999.90;;;15.10;99.90;;;;;;5035218;28;20532;-70
2022/06/29 04:01:04;;;;;;;1999.90;999.90;;;15.20;99.90;;;;;;5034161;28;20478;-70
2022/06/29 04:03:31;;;;;;;1999.90;999.90;;;15.30;99.90;;;;;;5034742;28;21074;-69
2022/06/29 04:05:58;;;;;;;1999.90;999.90;;;15.50;99.90;;;;;;5034928;28;20478;-70
2022/06/29 04:08:24;;;;;;;1999.90;999.90;;;15.60;99.90;;;;;;5034897;28;20446;-70
2022/06/29 04:10:51;;;;;;;1999.90;999.90;;;15.70;99.90;;;;;;5035000;28;20447;-70
2022/06/29 04:13:19;;;;;;;1999.90;999.90;;;15.90;99.90;;;;;;5034081;28;20483;-69
2022/06/29 04:15:46;;;;;;;1999.90;999.90;;;16.00;99.90;;;;;;5034422;28;20829;-70
2022/06/29 04:18:13;;;;;;;1999.90;999.90;;;16.20;99.90;;;;;;5034371;28;20528;-69
2022/06/29 04:23:24;;;;;;;1999.90;999.90;;;16.50;99.90;;;;;;5034726;28;20450;-70
2022/06/29 04:25:50;;;;;;;1999.90;999.90;;;16.50;99.90;;;;;;5031186;28;21201;-70
2022/06/29 04:28:18;;;;;;;1999.90;999.90;;;16.60;99.90;;;;;;5033638;28;20508;-70
2022/06/29 04:30:45;;;;;;;1999.90;999.90;;;16.70;99.90;;;;;;5031422;28;20542;-69
2022/06/29 04:33:12;;;;;;;1999.90;999.90;;;16.80;99.90;;;;;;5030536;28;20493;-69
2022/06/29 04:35:38;;;;;;;1999.90;999.90;;;17.00;99.90;;;;;;5032333;28;20915;-66
2022/06/29 04:38:05;;;;;;;1999.90;999.90;;;17.20;99.90;;;;;;5030652;28;20479;-64
2022/06/29 04:40:32;;;;;;;1999.90;999.90;;;17.60;99.90;;;;;;5033238;28;20505;-67
2022/06/29 04:42:58;;;;;;;1999.90;999.90;;;17.70;99.90;;;;;;5030505;28;20475;-66
2022/06/29 04:48:11;;;;;;;1999.90;999.90;;;18.00;99.90;;;;;;5031096;28;20497;-67
2022/06/29 04:50:37;;;;;;;1999.90;999.90;;;18.20;99.90;;;;;;5024050;28;20509;-64
2022/06/29 04:53:04;;;;;;;1999.90;999.90;;;18.50;99.90;;;;;;5024806;28;20471;-66
2022/06/29 04:55:31;;;;;;;1999.90;999.90;;;18.60;99.90;;;;;;5031946;28;20821;-68
2022/06/29 04:57:57;;;;;;;1999.90;999.90;;;18.70;99.90;;;;;;5032879;28;20497;-67
2022/06/29 05:00:25;;;;;;;1999.90;999.90;;;18.90;99.90;;;;;;5032140;28;20459;-67
2022/06/29 05:02:52;;;;;;;1999.90;999.90;;;19.10;99.90;;;;;;5021345;28;20487;-68
2022/06/29 05:05:19;;;;;;;1999.90;999.90;;;19.00;99.90;;;;;;5032253;28;20855;-68
2022/06/29 05:07:47;;;;;;;1999.90;999.90;;;18.80;99.90;;;;;;5028720;28;20448;-72
2022/06/29 05:10:14;;;;;;;1999.90;999.90;;;19.10;99.90;;;;;;5021432;28;20456;-68
2022/06/29 05:12:41;;;;;;;1999.90;999.90;;;18.90;99.90;;;;;;5029631;28;21016;-67
2022/06/29 05:15:09;;;;;;;1999.90;999.90;;;19.20;99.90;;;;;;5031575;28;20463;-67
2022/06/29 05:17:37;;;;;;;1999.90;999.90;;;19.60;99.90;;;;;;5033051;28;20533;-67
2022/06/29 05:20:05;;;;;;;1999.90;999.90;;;19.70;99.90;;;;;;5025029;28;20470;-68
2022/06/29 05:22:32;;;;;;;1999.90;999.90;;;19.80;99.90;;;;;;5030193;28;20495;-65
2022/06/29 05:24:59;;;;;;;1999.90;999.90;;;19.80;99.90;;;;;;5024917;28;20443;-67
2022/06/29 05:27:26;;;;;;;1999.90;999.90;;;19.80;99.90;;;;;;5033148;28;20463;-67
2022/06/29 05:29:52;;;;;;;1999.90;999.90;;;19.80;99.90;;;;;;5033490;28;20475;-68
2022/06/29 05:32:19;;;;;;;1999.90;999.90;;;20.00;99.90;;;;;;5032745;28;20882;-67
2022/06/29 05:34:47;;;;;;;1999.90;999.90;;;20.10;99.90;;;;;;5030639;28;20512;-68
2022/06/29 05:37:13;;;;;;;1999.90;999.90;;;20.10;99.60;;;;;;5031364;28;20475;-67
2022/06/29 05:39:42;;;;;;;1999.90;999.90;;;20.00;99.40;;;;;;5032836;28;20951;-67
2022/06/29 05:42:09;;;;;;;1999.90;999.90;;;19.90;99.30;;;;;;5029216;28;20459;-67
2022/06/29 05:44:36;;;;;;;1999.90;999.90;;;19.60;99.80;;;;;;5027629;28;20459;-68
2022/06/29 05:47:04;;;;;;;1999.90;999.90;;;19.60;99.90;;;;;;5026703;28;20455;-68
2022/06/29 05:49:30;;;;;;;1999.90;999.90;;;19.70;99.80;;;;;;5031567;28;20462;-67
2022/06/29 05:51:58;;;;;;;1999.90;999.90;;;19.40;99.90;;;;;;5025331;28;20460;-68
2022/06/29 05:54:25;;;;;;;1999.90;999.90;;;19.60;99.90;;;;;;5028580;28;20483;-66
2022/06/29 05:56:51;;;;;;;1999.90;999.90;;;19.70;99.90;;;;;;5030989;28;20463;-67
2022/06/29 05:59:18;;;;;;;1999.90;999.90;;;20.10;99.90;;;;;;5032506;28;20537;-67
2022/06/29 06:01:45;;;;;;;1999.90;999.90;;;20.20;99.90;;;;;;5032712;28;20455;-68
2022/06/29 06:04:11;;;;;;;1999.90;999.90;;;20.40;99.90;;;;;;5030279;28;20527;-68
2022/06/29 06:06:38;;;;;;;1999.90;999.90;;;20.60;99.90;;;;;;5031559;28;20883;-67
2022/06/29 06:09:07;;;;;;;1999.90;999.90;;;20.90;99.90;;;;;;5028555;28;20467;-68
2022/06/29 06:11:34;;;;;;;1999.90;999.90;;;21.00;99.90;;;;;;5033024;28;20439;-68
2022/06/29 06:14:01;;;;;;;1999.90;999.90;;;20.90;99.90;;;;;;5026227;28;20995;-68
2022/06/29 06:16:28;;;;;;;1999.90;999.90;;;20.90;99.90;;;;;;5030154;28;21034;-68
2022/06/29 06:18:55;;;;;;;1999.90;999.90;;;20.80;99.90;;;;;;5023005;28;20482;-68
2022/06/29 06:21:21;;;;;;;1999.90;999.90;;;20.80;99.90;;;;;;5028612;28;20463;-68
2022/06/29 06:23:48;;;;;;;1999.90;999.90;;;20.50;99.90;;;;;;5027917;28;20479;-68
2022/06/29 06:26:16;;;;;;;1999.90;999.90;;;20.40;99.90;;;;;;5028153;28;21170;-68
2022/06/29 06:28:43;;;;;;;1999.90;999.90;;;20.40;99.90;;;;;;5032774;28;20919;-69
2022/06/29 06:31:09;;;;;;;1999.90;999.90;;;20.10;99.90;;;;;;5031877;28;20471;-68
2022/06/29 06:33:36;;;;;;;1999.90;999.90;;;20.20;99.90;;;;;;5031507;28;20491;-68
2022/06/29 06:36:03;;;;;;;1999.90;999.90;;;20.00;99.90;;;;;;5029009;28;20467;-68
2022/06/29 06:38:30;;;;;;;1999.90;999.90;;;20.20;99.90;;;;;;5031996;28;20486;-67
2022/06/29 06:43:42;;;;;;;1999.90;999.90;;;20.10;99.90;;;;;;5024821;28;20462;-68
2022/06/29 06:46:09;;;;;;;1999.90;999.90;;;20.10;99.90;;;;;;5028465;28;20951;-68
2022/06/29 06:48:36;;;;;;;1999.90;999.90;;;20.10;99.90;;;;;;5026236;28;20530;-67
2022/06/29 06:51:03;;;;;;;1999.90;999.90;;;19.90;99.90;;;;;;5025894;28;20471;-66
2022/06/29 06:53:29;;;;;;;1999.90;999.90;;;19.90;99.90;;;;;;5031098;28;20482;-67
2022/06/29 06:55:56;;;;;;;1999.90;999.90;;;20.00;99.90;;;;;;5027559;28;20462;-67
2022/06/29 06:58:23;;;;;;;1999.90;999.90;;;19.90;99.90;;;;;;5032241;28;20537;-68
2022/06/29 07:00:51;;;;;;;1999.90;999.90;;;20.10;99.90;;;;;;5028063;28;21022;-65
2022/06/29 07:03:17;;;;;;;1999.90;999.90;;;20.50;99.90;;;;;;5021887;28;20478;-64
2022/06/29 07:05:44;;;;;;;1999.90;999.90;;;20.70;99.90;;;;;;5025303;28;21040;-68
2022/06/29 07:08:11;;;;;;;1999.90;999.90;;;20.80;99.90;;;;;;5030731;28;20459;-67
2022/06/29 07:10:37;;;;;;;1999.90;999.90;;;20.90;99.90;;;;;;5024799;28;20501;-68
2022/06/29 07:13:04;;;;;;;1999.90;999.90;;;21.00;99.90;;;;;;5031315;28;20904;-67
2022/06/29 07:15:31;;;;;;;1999.90;999.90;;;21.10;99.90;;;;;;5031890;28;20443;-68
2022/06/29 07:17:59;;;;;;;1999.90;999.90;;;21.20;99.90;;;;;;5029664;28;20519;-67
2022/06/29 07:20:28;;;;;;;1999.90;999.90;;;21.20;99.90;;;;;;5026912;28;20517;-68
2022/06/29 07:22:55;;;;;;;1999.90;999.90;;;21.20;99.90;;;;;;5019582;28;20479;-68
2022/06/29 07:25:21;;;;;;;1999.90;999.90;;;21.40;99.90;;;;;;5027516;28;20466;-68
2022/06/29 07:27:48;;;;;;;1999.90;999.90;;;21.70;99.90;;;;;;5024579;28;20451;-68
2022/06/29 07:30:15;;;;;;;1999.90;999.90;;;21.90;99.90;;;;;;5033425;28;20459;-67
2022/06/29 07:35:14;;;;;;;1999.90;999.90;;;22.10;99.90;;;;;;5064821;28;20481;-67
2022/06/29 07:37:42;;;;;;;1999.90;999.90;;;22.20;99.90;;;;;;5055714;28;20500;-68
2022/06/29 07:40:10;;;;;;;1999.90;999.90;;;22.30;99.90;;;;;;5074115;28;20583;-68
2022/06/29 07:42:38;;;;;;;1999.90;999.90;;;22.50;99.90;;;;;;5075349;28;20498;-69
2022/06/29 07:45:06;;;;;;;1999.90;999.90;;;22.30;99.90;;;;;;5054016;28;20842;-69
2022/06/29 07:47:33;;;;;;;1999.90;999.90;;;22.30;99.90;;;;;;5051015;28;20475;-68
2022/06/29 07:50:00;;;;;;;1999.90;999.90;;;22.50;99.90;;;;;;5046987;28;20462;-68
2022/06/29 07:52:28;;;;;;;1999.90;999.90;;;22.60;99.90;;;;;;5046693;28;20935;-68
2022/06/29 07:54:54;;;;;;;1999.90;999.90;;;22.60;99.90;;;;;;5044583;28;21055;-67
2022/06/29 07:57:21;;;;;;;1999.90;999.90;;;22.40;99.90;;;;;;5045832;28;20872;-68
2022/06/29 07:59:48;;;;;;;1999.90;999.90;;;22.30;99.90;;;;;;5052916;28;20531;-70
2022/06/29 08:02:15;;;;;;;1999.90;999.90;;;22.30;99.90;;;;;;5047955;28;20466;-68
2022/06/29 08:04:41;;;;;;;1999.90;999.90;;;22.40;99.90;;;;;;5047413;28;20500;-67
2022/06/29 08:07:08;;;;;;;1999.90;999.90;;;22.20;99.90;;;;;;5054881;28;20816;-68
2022/06/29 08:09:36;;;;;;;1999.90;999.90;;;22.20;99.90;;;;;;5054849;28;20935;-68
2022/06/29 08:12:03;;;;;;;1999.90;999.90;;;22.30;99.90;;;;;;5046722;28;20951;-69
2022/06/29 08:14:30;;;;;;;1999.90;999.90;;;22.30;99.90;;;;;;5045235;28;20491;-68
2022/06/29 08:16:56;;;;;;;1999.90;999.90;;;22.30;99.90;;;;;;5044851;28;20820;-67
2022/06/29 08:19:23;;;;;;;1999.90;999.90;;;22.10;99.90;;;;;;5054684;28;20918;-68
2022/06/29 08:21:50;;;;;;;1999.90;999.90;;;22.40;99.90;;;;;;5047512;28;20966;-68
2022/06/29 08:24:16;;;;;;;1999.90;999.90;;;22.30;99.90;;;;;;5050509;28;20478;-68
2022/06/29 08:26:44;;;;;;;1999.90;999.90;;;22.50;99.90;;;;;;5052840;28;20476;-68
2022/06/29 08:29:11;;;;;;;1999.90;999.90;;;22.60;99.90;;;;;;5052355;28;20476;-68
2022/06/29 08:31:37;;;;;;;1999.90;999.90;;;22.50;99.90;;;;;;5048898;28;20501;-68
2022/06/29 08:34:04;;;;;;;1999.90;999.90;;;22.30;99.90;;;;;;5041300;28;20556;-70
2022/06/29 08:36:31;;;;;;;1999.90;999.90;;;22.20;99.90;;;;;;5038776;28;20545;-67
2022/06/29 08:39:00;;;;;;;1999.90;999.90;;;22.40;99.90;;;;;;5045043;28;21001;-67
2022/06/29 08:41:28;;;;;;;1999.90;999.90;;;22.30;99.90;;;;;;5053776;28;20536;-68
2022/06/29 08:43:58;;;;;;;1999.90;999.90;;;22.50;99.90;;;;;;5047583;28;20525;-68
2022/06/29 08:46:25;;;;;;;1999.90;999.90;;;22.70;99.90;;;;;;5053882;28;21004;-68
2022/06/29 08:48:52;;;;;;;1999.90;999.90;;;22.60;99.90;;;;;;5054187;28;20492;-68
2022/06/29 08:51:20;;;;;;;1999.90;999.90;;;22.60;99.90;;;;;;5049785;28;20519;-67
2022/06/29 08:53:48;;;;;;;1999.90;999.90;;;22.50;99.90;;;;;;5040873;28;20486;-65
2022/06/29 08:56:16;;;;;;;1999.90;999.90;;;22.40;99.90;;;;;;5048809;28;20860;-67
2022/06/29 08:58:43;;;;;;;1999.90;999.90;;;22.50;99.90;;;;;;5047116;28;21034;-68
2022/06/29 09:01:12;;;;;;;1999.90;999.90;;;22.50;99.90;;;;;;5054133;28;20504;-68
2022/06/29 09:03:40;;;;;;;1999.90;999.90;;;22.30;99.90;;;;;;5053884;28;20477;-68
2022/06/29 09:06:08;;;;;;;1999.90;999.90;;;22.20;99.90;;;;;;5053522;28;20450;-67
2022/06/29 09:08:34;;;;;;;1999.90;999.90;;;22.10;99.90;;;;;;5052809;28;20466;-67
2022/06/29 09:11:20;;;;;;;1999.90;999.90;;;21.90;99.90;;;;;;5046524;28;20540;-67
2022/06/29 09:13:47;;;;;;;1999.90;999.90;;;21.80;99.90;;;;;;5051625;28;20575;-69
2022/06/29 09:16:16;;;;;;;1999.90;999.90;;;21.80;99.90;;;;;;5052457;28;20525;-67
2022/06/29 09:18:44;;;;;;;1999.90;999.90;;;21.90;99.90;;;;;;5053801;28;20489;-68
2022/06/29 09:21:11;;;;;;;1999.90;999.90;;;22.00;99.90;;;;;;5052858;28;20514;-67
2022/06/29 09:23:37;;;;;;;1999.90;999.90;;;22.00;99.90;;;;;;5043230;28;20478;-67
2022/06/29 09:26:04;;;;;;;1999.90;999.90;;;22.00;99.90;;;;;;5052047;28;21020;-69
2022/06/29 09:28:33;;;;;;;1999.90;999.90;;;22.00;99.90;;;;;;5045507;28;20948;-68
2022/06/29 09:31:00;;;;;;;1999.90;999.90;;;22.40;99.90;;;;;;5048401;28;20454;-68
2022/06/29 09:33:31;;;;;;;1999.90;999.90;;;22.30;99.90;;;;;;5047073;28;20584;-68
2022/06/29 09:36:06;;;;;;;1999.90;999.90;;;22.50;99.90;;;;;;5044359;28;20462;-68
2022/06/29 09:38:32;;;;;;;1999.90;999.90;;;22.70;99.90;;;;;;5053126;28;20446;-68
2022/06/29 09:41:04;;;;;;;1999.90;999.90;;;22.50;99.90;;;;;;5053617;28;20455;-70
2022/06/29 09:43:33;;;;;;;1999.90;999.90;;;22.60;99.90;;;;;;5043801;28;20487;-69
2022/06/29 09:46:01;;;;;;;1999.90;999.90;;;22.50;99.90;;;;;;5051966;28;20447;-68
2022/06/29 09:48:30;;;;;;;1999.90;999.90;;;22.40;99.90;;;;;;5041271;28;20470;-68
2022/06/29 09:50:58;;;;;;;1999.90;999.90;;;22.40;99.90;;;;;;5047858;28;20450;-67
2022/06/29 09:53:28;;;;;;;1999.90;999.90;;;22.50;99.90;;;;;;5047162;28;20481;-68
2022/06/29 09:55:57;;;;;;;1999.90;999.90;;;22.60;99.90;;;;;;5041066;28;20463;-68
2022/06/29 09:58:33;;;;;;;1999.90;999.90;;;23.00;99.90;;;;;;5042436;28;20459;-68
2022/06/29 10:03:50;;;;;;;1999.90;999.90;;;22.90;99.90;;;;;;5045598;28;20477;-68
2022/06/29 10:06:18;;;;;;;1999.90;999.90;;;22.80;99.90;;;;;;5048564;28;20528;-68
2022/06/29 10:08:46;;;;;;;1999.90;999.90;;;22.90;99.90;;;;;;5045284;28;20547;-68
2022/06/29 10:14:11;;;;;;;1999.90;999.90;;;22.80;99.90;;;;;;5049726;28;20972;-68
2022/06/29 10:16:49;;;;;;;1999.90;999.90;;;22.60;99.90;;;;;;5042756;28;20918;-67
2022/06/29 10:19:31;;;;;;;1999.90;999.90;;;22.60;99.90;;;;;;5050833;28;20482;-68
2022/06/29 10:21:59;;;;;;;1999.90;999.90;;;22.60;99.90;;;;;;5042214;28;20513;-67
2022/06/29 10:24:26;;;;;;;1999.90;999.90;;;22.60;99.90;;;;;;5041895;28;20489;-67
2022/06/29 10:26:53;;;;;;;1999.90;999.90;;;22.40;99.90;;;;;;5049821;28;20486;-68
2022/06/29 10:29:33;;;;;;;1999.90;999.90;;;22.30;99.90;;;;;;5044143;28;20449;-67
2022/06/29 10:32:15;;;;;;;1999.90;999.90;;;22.40;99.90;;;;;;5051545;28;20462;-68
2022/06/29 10:37:30;;;;;;;1999.90;999.90;;;22.60;99.90;;;;;;5049896;28;20457;-69
2022/06/29 10:40:00;;;;;;;1999.90;999.90;;;22.80;99.90;;;;;;5051851;28;20521;-69
2022/06/29 10:45:24;;;;;;;1999.90;999.90;;;22.90;99.90;;;;;;5051632;28;20500;-68
2022/06/29 10:48:13;;;;;;;1999.90;999.90;;;22.90;99.90;;;;;;5051306;28;20476;-68
2022/06/29 10:50:42;;;;;;;1999.90;999.90;;;23.00;99.90;;;;;;5049256;28;20663;-69
2022/06/29 10:53:10;;;;;;;1999.90;999.90;;;22.90;99.90;;;;;;5049828;28;21009;-69
2022/06/29 10:55:39;;;;;;;1999.90;999.90;;;23.00;99.90;;;;;;5043897;28;20934;-69
2022/06/29 10:58:06;;;;;;;1999.90;999.90;;;23.00;99.90;;;;;;5051626;28;20519;-69
2022/06/29 11:00:35;;;;;;;1999.90;999.90;;;23.20;99.90;;;;;;5043450;28;20498;-71
2022/06/29 11:03:10;;;;;;;1999.90;999.90;;;23.20;99.90;;;;;;5050827;28;20557;-69
2022/06/29 11:05:37;;;;;;;1999.90;999.90;;;23.30;99.90;;;;;;5050153;28;20468;-68
2022/06/29 11:13:50;;;;;;;1999.90;999.90;;;23.50;99.90;;;;;;4988647;28;20514;-68
2022/06/29 11:16:18;;;;;;;1999.90;999.90;;;23.50;99.90;;;;;;5020028;28;20469;-70
2022/06/29 11:18:44;;;;;;;1999.90;999.90;;;23.70;99.90;;;;;;5050235;28;20458;-68
2022/06/29 11:21:11;;;;;;;1999.90;999.90;;;23.60;99.90;;;;;;5051792;28;20446;-68
2022/06/29 11:23:39;;;;;;;1999.90;999.90;;;23.60;99.90;;;;;;5050871;28;20540;-68
2022/06/29 11:26:06;;;;;;;1999.90;999.90;;;23.80;99.90;;;;;;5050195;28;20458;-70
2022/06/29 11:28:36;;;;;;;1999.90;999.90;;;23.70;99.90;;;;;;5040089;28;20466;-69
2022/06/29 11:31:04;;;;;;;1999.90;999.90;;;23.70;99.90;;;;;;5051433;28;20483;-70
2022/06/29 11:33:33;;;;;;;1999.90;999.90;;;23.60;99.90;;;;;;5047241;28;20915;-69
2022/06/29 11:36:04;;;;;;;1999.90;999.90;;;23.50;99.90;;;;;;5039297;28;20511;-68
2022/06/29 11:38:31;;;;;;;1999.90;999.90;;;23.70;99.90;;;;;;5049658;28;20552;-68
2022/06/29 11:41:09;;;;;;;1999.90;999.90;;;23.70;99.90;;;;;;5051205;28;21017;-69
2022/06/29 11:43:36;;;;;;;1999.90;999.90;;;23.80;99.90;;;;;;5046960;28;20498;-69
2022/06/29 11:46:03;;;;;;;1999.90;999.90;;;23.50;99.90;;;;;;5050576;28;20500;-68
2022/06/29 11:48:31;;;;;;;1999.90;999.90;;;23.70;99.90;;;;;;5051491;28;20472;-69
2022/06/29 11:50:59;;;;;;;1999.90;999.90;;;23.90;99.90;;;;;;5046754;28;20462;-66
2022/06/29 11:53:40;;;;;;;1999.90;999.90;;;24.10;99.90;;;;;;5051078;28;20469;-68
2022/06/29 11:56:13;;;;;;;1999.90;999.90;;;24.30;99.90;;;;;;5045605;28;20839;-68
2022/06/29 11:58:42;;;;;;;1999.90;999.90;;;24.30;99.90;;;;;;5051469;28;20446;-67
2022/06/29 12:01:11;;;;;;;1999.90;999.90;;;24.10;99.90;;;;;;5034304;28;20494;-67
2022/06/29 12:03:38;;;;;;;1999.90;999.90;;;24.30;99.90;;;;;;5036012;28;20498;-67
2022/06/29 12:06:05;;;;;;;1999.90;999.90;;;24.10;99.90;;;;;;5045254;28;20512;-67
2022/06/29 12:08:31;;;;;;;1999.90;999.90;;;24.10;99.90;;;;;;5042019;28;20463;-68
2022/06/29 12:10:58;;;;;;;1999.90;999.90;;;23.90;99.90;;;;;;5049642;28;20485;-70
2022/06/29 12:13:26;;;;;;;1999.90;999.90;;;23.80;99.90;;;;;;5042666;28;20470;-69
2022/06/29 12:15:53;;;;;;;1999.90;999.90;;;23.40;99.90;;;;;;5050370;28;20457;-68
2022/06/29 12:18:20;;;;;;;1999.90;999.90;;;23.30;99.90;;;;;;5048079;28;20974;-70
2022/06/29 12:20:47;;;;;;;1999.90;999.90;;;23.20;99.90;;;;;;5053248;28;20849;-70
2022/06/29 12:23:13;;;;;;;1999.90;999.90;;;23.20;99.90;;;;;;5052959;28;20494;-67
2022/06/29 12:25:40;;;;;;;1999.90;999.90;;;23.40;99.90;;;;;;5054192;28;20450;-68
2022/06/29 12:28:07;;;;;;;1999.90;999.90;;;23.50;99.90;;;;;;5053682;28;20515;-69
2022/06/29 12:30:35;;;;;;;1999.90;999.90;;;23.80;99.90;;;;;;5046426;28;20438;-68